sensor_id;sensor_type;location;lat;lon;timestamp;P1;durP1;ratioP1;P2;durP2;ratioP2
17696;SDS011;8967;47.984;7.842;2023-07-16T00:01:00;1.05;;;1.00;;
17696;SDS011;8967;47.984;7.842;2023-07-16T00:03:27;1.17;;;1.08;;
17696;SDS011;8967;47.984;7.842;2023-07-16T00:05:54;3.30;;;1.10;;
17696;SDS011;8967;47.984;7.842;2023-07-16T00:08:21;1.15;;;1.05;;
17696;SDS011;8967;47.984;7.842;2023-07-16T00:10:49;0.98;;;0.90;;
17696;SDS011;8967;47.984;7.842;2023-07-16T00:13:16;3.08;;;1.10;;
17696;SDS011;8967;47.984;7.842;2023-07-16T00:15:43;1.35;;;1.25;;
17696;SDS011;8967;47.984;7.842;2023-07-16T00:18:10;1.10;;;0.98;;
17696;SDS011;8967;47.984;7.842;2023-07-16T00:20:37;1.50;;;1.08;;
17696;SDS011;8967;47.984;7.842;2023-07-16T00:23:04;1.83;;;1.33;;
17696;SDS011;8967;47.984;7.842;2023-07-16T00:25:31;11.77;;;1.15;;
17696;SDS011;8967;47.984;7.842;2023-07-16T00:27:59;4.72;;;1.02;;
17696;SDS011;8967;47.984;7.842;2023-07-16T00:30:26;7.70;;;1.20;;
17696;SDS011;8967;47.984;7.842;2023-07-16T00:32:52;4.13;;;1.08;;
17696;SDS011;8967;47.984;7.842;2023-07-16T00:35:22;2.10;;;1.00;;
17696;SDS011;8967;47.984;7.842;2023-07-16T00:37:49;4.60;;;1.20;;
17696;SDS011;8967;47.984;7.842;2023-07-16T00:40:16;2.63;;;1.40;;
17696;SDS011;8967;47.984;7.842;2023-07-16T00:42:43;2.00;;;1.30;;
17696;SDS011;8967;47.984;7.842;2023-07-16T00:45:12;2.83;;;1.30;;
17696;SDS011;8967;47.984;7.842;2023-07-16T00:47:40;2.13;;;1.38;;
17696;SDS011;8967;47.984;7.842;2023-07-16T00:50:11;2.00;;;1.30;;
17696;SDS011;8967;47.984;7.842;2023-07-16T00:52:38;1.40;;;1.30;;
17696;SDS011;8967;47.984;7.842;2023-07-16T00:55:06;1.40;;;1.15;;
17696;SDS011;8967;47.984;7.842;2023-07-16T00:57:37;1.42;;;1.20;;
17696;SDS011;8967;47.984;7.842;2023-07-16T01:00:05;1.23;;;1.13;;
17696;SDS011;8967;47.984;7.842;2023-07-16T01:02:36;2.38;;;1.30;;
17696;SDS011;8967;47.984;7.842;2023-07-16T01:05:04;1.50;;;1.40;;
17696;SDS011;8967;47.984;7.842;2023-07-16T01:07:31;1.85;;;1.02;;
17696;SDS011;8967;47.984;7.842;2023-07-16T01:09:59;1.30;;;1.20;;
17696;SDS011;8967;47.984;7.842;2023-07-16T01:12:28;1.85;;;1.13;;
17696;SDS011;8967;47.984;7.842;2023-07-16T01:14:58;1.52;;;1.27;;
17696;SDS011;8967;47.984;7.842;2023-07-16T01:17:25;1.45;;;1.35;;
17696;SDS011;8967;47.984;7.842;2023-07-16T01:19:53;1.20;;;1.10;;
17696;SDS011;8967;47.984;7.842;2023-07-16T01:22:27;1.73;;;0.95;;
17696;SDS011;8967;47.984;7.842;2023-07-16T01:25:09;1.25;;;1.15;;
17696;SDS011;8967;47.984;7.842;2023-07-16T01:27:52;1.88;;;1.25;;
17696;SDS011;8967;47.984;7.842;2023-07-16T01:30:33;2.95;;;1.40;;
17696;SDS011;8967;47.984;7.842;2023-07-16T01:33:03;1.20;;;1.10;;
17696;SDS011;8967;47.984;7.842;2023-07-16T01:35:31;1.63;;;1.25;;
17696;SDS011;8967;47.984;7.842;2023-07-16T01:37:59;1.52;;;1.20;;
17696;SDS011;8967;47.984;7.842;2023-07-16T01:40:26;2.90;;;1.50;;
17696;SDS011;8967;47.984;7.842;2023-07-16T01:42:53;3.13;;;1.38;;
17696;SDS011;8967;47.984;7.842;2023-07-16T01:45:20;1.98;;;1.23;;
17696;SDS011;8967;47.984;7.842;2023-07-16T01:47:52;1.90;;;1.10;;
17696;SDS011;8967;47.984;7.842;2023-07-16T01:50:30;1.50;;;1.23;;
17696;SDS011;8967;47.984;7.842;2023-07-16T01:52:57;1.85;;;1.10;;
17696;SDS011;8967;47.984;7.842;2023-07-16T01:55:24;1.40;;;0.98;;
17696;SDS011;8967;47.984;7.842;2023-07-16T01:57:51;4.53;;;1.50;;
17696;SDS011;8967;47.984;7.842;2023-07-16T02:00:18;1.58;;;1.38;;
17696;SDS011;8967;47.984;7.842;2023-07-16T02:02:45;2.42;;;1.10;;
17696;SDS011;8967;47.984;7.842;2023-07-16T02:05:14;2.90;;;1.33;;
17696;SDS011;8967;47.984;7.842;2023-07-16T02:07:42;1.98;;;1.30;;
17696;SDS011;8967;47.984;7.842;2023-07-16T02:10:09;1.67;;;1.20;;
17696;SDS011;8967;47.984;7.842;2023-07-16T02:12:38;2.60;;;1.13;;
17696;SDS011;8967;47.984;7.842;2023-07-16T02:15:06;2.90;;;1.23;;
17696;SDS011;8967;47.984;7.842;2023-07-16T02:17:35;4.07;;;1.35;;
17696;SDS011;8967;47.984;7.842;2023-07-16T02:20:02;2.17;;;1.20;;
17696;SDS011;8967;47.984;7.842;2023-07-16T02:22:32;4.55;;;1.35;;
17696;SDS011;8967;47.984;7.842;2023-07-16T02:25:00;3.03;;;1.38;;
17696;SDS011;8967;47.984;7.842;2023-07-16T02:27:29;5.03;;;1.38;;
17696;SDS011;8967;47.984;7.842;2023-07-16T02:29:56;2.22;;;1.65;;
17696;SDS011;8967;47.984;7.842;2023-07-16T02:32:23;2.55;;;1.55;;
17696;SDS011;8967;47.984;7.842;2023-07-16T02:34:50;2.33;;;1.25;;
17696;SDS011;8967;47.984;7.842;2023-07-16T02:37:17;3.53;;;1.40;;
17696;SDS011;8967;47.984;7.842;2023-07-16T02:39:45;3.33;;;1.38;;
17696;SDS011;8967;47.984;7.842;2023-07-16T02:42:13;2.92;;;1.35;;
17696;SDS011;8967;47.984;7.842;2023-07-16T02:44:40;3.72;;;1.20;;
17696;SDS011;8967;47.984;7.842;2023-07-16T02:47:10;2.78;;;1.30;;
17696;SDS011;8967;47.984;7.842;2023-07-16T02:49:37;6.10;;;1.75;;
17696;SDS011;8967;47.984;7.842;2023-07-16T02:52:04;1.25;;;1.15;;
17696;SDS011;8967;47.984;7.842;2023-07-16T02:54:32;1.77;;;1.45;;
17696;SDS011;8967;47.984;7.842;2023-07-16T02:57:00;1.77;;;1.52;;
17696;SDS011;8967;47.984;7.842;2023-07-16T02:59:28;3.03;;;1.58;;
17696;SDS011;8967;47.984;7.842;2023-07-16T03:01:55;2.42;;;1.58;;
17696;SDS011;8967;47.984;7.842;2023-07-16T03:04:21;3.55;;;1.15;;
17696;SDS011;8967;47.984;7.842;2023-07-16T03:06:48;2.45;;;1.30;;
17696;SDS011;8967;47.984;7.842;2023-07-16T03:09:15;2.25;;;1.30;;
17696;SDS011;8967;47.984;7.842;2023-07-16T03:11:42;4.53;;;1.52;;
17696;SDS011;8967;47.984;7.842;2023-07-16T03:14:10;1.20;;;1.00;;
17696;SDS011;8967;47.984;7.842;2023-07-16T03:16:39;3.22;;;1.40;;
17696;SDS011;8967;47.984;7.842;2023-07-16T03:19:08;2.75;;;1.55;;
17696;SDS011;8967;47.984;7.842;2023-07-16T03:21:35;2.75;;;1.10;;
17696;SDS011;8967;47.984;7.842;2023-07-16T03:24:03;3.58;;;1.20;;
17696;SDS011;8967;47.984;7.842;2023-07-16T03:26:30;1.65;;;1.38;;
17696;SDS011;8967;47.984;7.842;2023-07-16T03:28:57;2.60;;;1.30;;
17696;SDS011;8967;47.984;7.842;2023-07-16T03:31:25;3.28;;;1.45;;
17696;SDS011;8967;47.984;7.842;2023-07-16T03:33:52;1.23;;;0.98;;
17696;SDS011;8967;47.984;7.842;2023-07-16T03:36:21;1.90;;;1.50;;
17696;SDS011;8967;47.984;7.842;2023-07-16T03:38:49;2.42;;;1.17;;
17696;SDS011;8967;47.984;7.842;2023-07-16T03:41:16;4.72;;;1.33;;
17696;SDS011;8967;47.984;7.842;2023-07-16T03:43:46;3.83;;;1.30;;
17696;SDS011;8967;47.984;7.842;2023-07-16T03:46:19;2.78;;;1.25;;
17696;SDS011;8967;47.984;7.842;2023-07-16T03:48:50;1.88;;;1.30;;
17696;SDS011;8967;47.984;7.842;2023-07-16T03:51:17;2.13;;;1.60;;
17696;SDS011;8967;47.984;7.842;2023-07-16T03:53:44;4.32;;;1.80;;
17696;SDS011;8967;47.984;7.842;2023-07-16T03:56:11;3.38;;;1.70;;
17696;SDS011;8967;47.984;7.842;2023-07-16T03:58:38;2.83;;;1.38;;
17696;SDS011;8967;47.984;7.842;2023-07-16T04:01:05;4.15;;;1.63;;
17696;SDS011;8967;47.984;7.842;2023-07-16T04:03:32;6.80;;;1.60;;
17696;SDS011;8967;47.984;7.842;2023-07-16T04:06:03;6.32;;;1.40;;
17696;SDS011;8967;47.984;7.842;2023-07-16T04:08:31;3.40;;;1.20;;
17696;SDS011;8967;47.984;7.842;2023-07-16T04:10:58;2.30;;;1.30;;
17696;SDS011;8967;47.984;7.842;2023-07-16T04:13:25;5.88;;;1.50;;
17696;SDS011;8967;47.984;7.842;2023-07-16T04:15:52;3.15;;;1.33;;
17696;SDS011;8967;47.984;7.842;2023-07-16T04:18:19;2.08;;;1.20;;
17696;SDS011;8967;47.984;7.842;2023-07-16T04:20:47;3.53;;;1.70;;
17696;SDS011;8967;47.984;7.842;2023-07-16T04:23:15;3.78;;;1.63;;
17696;SDS011;8967;47.984;7.842;2023-07-16T04:25:42;3.55;;;1.50;;
17696;SDS011;8967;47.984;7.842;2023-07-16T04:28:09;3.20;;;1.50;;
17696;SDS011;8967;47.984;7.842;2023-07-16T04:30:36;1.88;;;1.58;;
17696;SDS011;8967;47.984;7.842;2023-07-16T04:33:03;3.15;;;1.20;;
17696;SDS011;8967;47.984;7.842;2023-07-16T04:35:30;3.75;;;1.75;;
17696;SDS011;8967;47.984;7.842;2023-07-16T04:38:00;3.45;;;1.75;;
17696;SDS011;8967;47.984;7.842;2023-07-16T04:40:29;4.80;;;1.52;;
17696;SDS011;8967;47.984;7.842;2023-07-16T04:42:56;1.95;;;1.30;;
17696;SDS011;8967;47.984;7.842;2023-07-16T04:45:23;3.42;;;1.60;;
17696;SDS011;8967;47.984;7.842;2023-07-16T04:47:50;3.08;;;1.63;;
17696;SDS011;8967;47.984;7.842;2023-07-16T04:50:17;4.10;;;1.55;;
17696;SDS011;8967;47.984;7.842;2023-07-16T04:52:46;3.10;;;1.60;;
17696;SDS011;8967;47.984;7.842;2023-07-16T04:55:13;4.20;;;1.73;;
17696;SDS011;8967;47.984;7.842;2023-07-16T04:57:42;4.13;;;1.45;;
17696;SDS011;8967;47.984;7.842;2023-07-16T05:00:09;3.90;;;1.40;;
17696;SDS011;8967;47.984;7.842;2023-07-16T05:02:36;3.42;;;1.77;;
17696;SDS011;8967;47.984;7.842;2023-07-16T05:05:03;5.35;;;1.35;;
17696;SDS011;8967;47.984;7.842;2023-07-16T05:07:31;4.25;;;1.52;;
17696;SDS011;8967;47.984;7.842;2023-07-16T05:09:58;4.47;;;1.73;;
17696;SDS011;8967;47.984;7.842;2023-07-16T05:12:24;4.05;;;1.65;;
17696;SDS011;8967;47.984;7.842;2023-07-16T05:14:55;3.22;;;1.35;;
17696;SDS011;8967;47.984;7.842;2023-07-16T05:17:22;2.65;;;1.50;;
17696;SDS011;8967;47.984;7.842;2023-07-16T05:19:49;2.85;;;1.50;;
17696;SDS011;8967;47.984;7.842;2023-07-16T05:22:16;1.40;;;1.30;;
17696;SDS011;8967;47.984;7.842;2023-07-16T05:24:42;4.00;;;1.38;;
17696;SDS011;8967;47.984;7.842;2023-07-16T05:27:09;6.05;;;1.50;;
17696;SDS011;8967;47.984;7.842;2023-07-16T05:29:36;5.75;;;1.48;;
17696;SDS011;8967;47.984;7.842;2023-07-16T05:32:05;2.22;;;1.38;;
17696;SDS011;8967;47.984;7.842;2023-07-16T05:34:57;3.83;;;1.63;;
17696;SDS011;8967;47.984;7.842;2023-07-16T05:37:24;2.67;;;1.45;;
17696;SDS011;8967;47.984;7.842;2023-07-16T05:39:51;3.83;;;1.55;;
17696;SDS011;8967;47.984;7.842;2023-07-16T05:42:18;3.72;;;1.38;;
17696;SDS011;8967;47.984;7.842;2023-07-16T05:44:46;4.15;;;1.83;;
17696;SDS011;8967;47.984;7.842;2023-07-16T05:47:15;5.47;;;1.55;;
17696;SDS011;8967;47.984;7.842;2023-07-16T05:49:42;2.92;;;1.30;;
17696;SDS011;8967;47.984;7.842;2023-07-16T05:52:08;3.80;;;1.45;;
17696;SDS011;8967;47.984;7.842;2023-07-16T05:54:38;1.98;;;1.35;;
17696;SDS011;8967;47.984;7.842;2023-07-16T05:57:05;3.67;;;1.50;;
17696;SDS011;8967;47.984;7.842;2023-07-16T05:59:32;5.88;;;1.58;;
17696;SDS011;8967;47.984;7.842;2023-07-16T06:01:59;2.42;;;1.30;;
17696;SDS011;8967;47.984;7.842;2023-07-16T06:04:27;2.00;;;1.13;;
17696;SDS011;8967;47.984;7.842;2023-07-16T06:06:54;2.63;;;1.70;;
17696;SDS011;8967;47.984;7.842;2023-07-16T06:09:22;3.03;;;1.55;;
17696;SDS011;8967;47.984;7.842;2023-07-16T06:11:49;6.13;;;1.65;;
17696;SDS011;8967;47.984;7.842;2023-07-16T06:14:16;2.70;;;1.40;;
17696;SDS011;8967;47.984;7.842;2023-07-16T06:16:43;3.08;;;1.40;;
17696;SDS011;8967;47.984;7.842;2023-07-16T06:19:10;3.42;;;1.40;;
17696;SDS011;8967;47.984;7.842;2023-07-16T06:21:38;2.88;;;1.55;;
17696;SDS011;8967;47.984;7.842;2023-07-16T06:24:07;4.75;;;1.52;;
17696;SDS011;8967;47.984;7.842;2023-07-16T06:26:34;5.55;;;1.67;;
17696;SDS011;8967;47.984;7.842;2023-07-16T06:29:01;4.68;;;1.75;;
17696;SDS011;8967;47.984;7.842;2023-07-16T06:31:28;4.25;;;1.40;;
17696;SDS011;8967;47.984;7.842;2023-07-16T06:33:55;3.53;;;1.45;;
17696;SDS011;8967;47.984;7.842;2023-07-16T06:36:22;4.43;;;1.80;;
17696;SDS011;8967;47.984;7.842;2023-07-16T06:38:50;4.95;;;1.98;;
17696;SDS011;8967;47.984;7.842;2023-07-16T06:41:19;5.15;;;1.60;;
17696;SDS011;8967;47.984;7.842;2023-07-16T06:43:46;3.95;;;1.77;;
17696;SDS011;8967;47.984;7.842;2023-07-16T06:46:13;4.93;;;1.65;;
17696;SDS011;8967;47.984;7.842;2023-07-16T06:48:40;2.33;;;1.30;;
17696;SDS011;8967;47.984;7.842;2023-07-16T06:51:06;2.75;;;1.38;;
17696;SDS011;8967;47.984;7.842;2023-07-16T06:53:36;4.47;;;1.75;;
17696;SDS011;8967;47.984;7.842;2023-07-16T06:56:04;3.47;;;1.48;;
17696;SDS011;8967;47.984;7.842;2023-07-16T06:58:34;5.28;;;1.98;;
17696;SDS011;8967;47.984;7.842;2023-07-16T07:01:00;5.60;;;1.88;;
17696;SDS011;8967;47.984;7.842;2023-07-16T07:03:30;4.22;;;1.40;;
17696;SDS011;8967;47.984;7.842;2023-07-16T07:05:58;3.00;;;1.65;;
17696;SDS011;8967;47.984;7.842;2023-07-16T07:08:27;3.88;;;1.52;;
17696;SDS011;8967;47.984;7.842;2023-07-16T07:10:54;4.28;;;1.88;;
17696;SDS011;8967;47.984;7.842;2023-07-16T07:13:23;4.07;;;1.40;;
17696;SDS011;8967;47.984;7.842;2023-07-16T07:15:53;4.20;;;1.70;;
17696;SDS011;8967;47.984;7.842;2023-07-16T07:18:19;3.42;;;1.35;;
17696;SDS011;8967;47.984;7.842;2023-07-16T07:20:46;4.13;;;1.90;;
17696;SDS011;8967;47.984;7.842;2023-07-16T07:23:14;4.50;;;1.45;;
17696;SDS011;8967;47.984;7.842;2023-07-16T07:25:42;3.70;;;1.58;;
17696;SDS011;8967;47.984;7.842;2023-07-16T07:28:08;4.25;;;1.60;;
17696;SDS011;8967;47.984;7.842;2023-07-16T07:30:39;2.70;;;1.52;;
17696;SDS011;8967;47.984;7.842;2023-07-16T07:33:06;5.07;;;1.70;;
17696;SDS011;8967;47.984;7.842;2023-07-16T07:35:33;2.50;;;1.60;;
17696;SDS011;8967;47.984;7.842;2023-07-16T07:38:02;5.55;;;1.75;;
17696;SDS011;8967;47.984;7.842;2023-07-16T07:40:29;5.88;;;1.90;;
17696;SDS011;8967;47.984;7.842;2023-07-16T07:42:56;5.05;;;1.70;;
17696;SDS011;8967;47.984;7.842;2023-07-16T07:45:23;3.88;;;1.67;;
17696;SDS011;8967;47.984;7.842;2023-07-16T07:47:51;5.40;;;1.50;;
17696;SDS011;8967;47.984;7.842;2023-07-16T07:50:18;3.88;;;1.50;;
17696;SDS011;8967;47.984;7.842;2023-07-16T07:52:45;3.70;;;1.60;;
17696;SDS011;8967;47.984;7.842;2023-07-16T07:55:14;3.95;;;1.95;;
17696;SDS011;8967;47.984;7.842;2023-07-16T07:57:41;4.40;;;1.67;;
17696;SDS011;8967;47.984;7.842;2023-07-16T08:00:11;5.40;;;1.60;;
17696;SDS011;8967;47.984;7.842;2023-07-16T08:02:40;7.80;;;1.95;;
17696;SDS011;8967;47.984;7.842;2023-07-16T08:05:09;5.75;;;2.05;;
17696;SDS011;8967;47.984;7.842;2023-07-16T08:07:36;6.43;;;2.45;;
17696;SDS011;8967;47.984;7.842;2023-07-16T08:10:03;5.82;;;1.42;;
17696;SDS011;8967;47.984;7.842;2023-07-16T08:12:30;6.22;;;1.90;;
17696;SDS011;8967;47.984;7.842;2023-07-16T08:14:57;6.65;;;1.75;;
17696;SDS011;8967;47.984;7.842;2023-07-16T08:17:26;3.42;;;1.70;;
17696;SDS011;8967;47.984;7.842;2023-07-16T08:19:53;7.40;;;1.88;;
17696;SDS011;8967;47.984;7.842;2023-07-16T08:22:22;4.40;;;1.70;;
17696;SDS011;8967;47.984;7.842;2023-07-16T08:24:50;4.53;;;1.40;;
17696;SDS011;8967;47.984;7.842;2023-07-16T08:27:17;7.43;;;2.05;;
17696;SDS011;8967;47.984;7.842;2023-07-16T08:29:44;8.25;;;2.08;;
17696;SDS011;8967;47.984;7.842;2023-07-16T08:32:14;2.78;;;1.52;;
17696;SDS011;8967;47.984;7.842;2023-07-16T08:34:41;6.15;;;1.60;;
17696;SDS011;8967;47.984;7.842;2023-07-16T08:37:07;3.20;;;1.92;;
17696;SDS011;8967;47.984;7.842;2023-07-16T08:39:38;5.78;;;1.88;;
17696;SDS011;8967;47.984;7.842;2023-07-16T08:42:05;4.10;;;1.83;;
17696;SDS011;8967;47.984;7.842;2023-07-16T08:44:37;7.63;;;2.40;;
17696;SDS011;8967;47.984;7.842;2023-07-16T08:47:04;4.75;;;1.67;;
17696;SDS011;8967;47.984;7.842;2023-07-16T08:49:34;8.80;;;1.85;;
17696;SDS011;8967;47.984;7.842;2023-07-16T08:52:02;6.10;;;1.92;;
17696;SDS011;8967;47.984;7.842;2023-07-16T08:54:32;8.65;;;2.03;;
17696;SDS011;8967;47.984;7.842;2023-07-16T08:57:01;6.40;;;2.03;;
17696;SDS011;8967;47.984;7.842;2023-07-16T08:59:28;5.45;;;1.58;;
17696;SDS011;8967;47.984;7.842;2023-07-16T09:01:55;6.18;;;1.90;;
17696;SDS011;8967;47.984;7.842;2023-07-16T09:04:22;4.20;;;1.40;;
17696;SDS011;8967;47.984;7.842;2023-07-16T09:06:49;5.75;;;1.92;;
17696;SDS011;8967;47.984;7.842;2023-07-16T09:09:19;5.55;;;1.77;;
17696;SDS011;8967;47.984;7.842;2023-07-16T09:11:49;6.03;;;2.13;;
17696;SDS011;8967;47.984;7.842;2023-07-16T09:14:18;3.55;;;1.45;;
17696;SDS011;8967;47.984;7.842;2023-07-16T09:16:49;4.60;;;1.50;;
17696;SDS011;8967;47.984;7.842;2023-07-16T09:19:16;6.82;;;1.80;;
17696;SDS011;8967;47.984;7.842;2023-07-16T09:21:45;6.32;;;1.85;;
17696;SDS011;8967;47.984;7.842;2023-07-16T09:24:13;6.95;;;1.88;;
17696;SDS011;8967;47.984;7.842;2023-07-16T09:26:47;5.70;;;1.50;;
17696;SDS011;8967;47.984;7.842;2023-07-16T09:29:14;7.45;;;1.65;;
17696;SDS011;8967;47.984;7.842;2023-07-16T09:31:52;5.20;;;1.60;;
17696;SDS011;8967;47.984;7.842;2023-07-16T09:34:20;4.70;;;1.58;;
17696;SDS011;8967;47.984;7.842;2023-07-16T09:36:47;4.32;;;1.77;;
17696;SDS011;8967;47.984;7.842;2023-07-16T09:39:15;6.38;;;1.90;;
17696;SDS011;8967;47.984;7.842;2023-07-16T09:41:44;2.30;;;1.30;;
17696;SDS011;8967;47.984;7.842;2023-07-16T09:44:11;2.28;;;1.65;;
17696;SDS011;8967;47.984;7.842;2023-07-16T09:46:39;3.05;;;1.42;;
17696;SDS011;8967;47.984;7.842;2023-07-16T09:49:08;4.07;;;1.80;;
17696;SDS011;8967;47.984;7.842;2023-07-16T09:51:36;3.78;;;1.45;;
17696;SDS011;8967;47.984;7.842;2023-07-16T09:54:04;3.80;;;1.67;;
17696;SDS011;8967;47.984;7.842;2023-07-16T09:56:32;2.67;;;1.23;;
17696;SDS011;8967;47.984;7.842;2023-07-16T09:59:02;5.05;;;1.73;;
17696;SDS011;8967;47.984;7.842;2023-07-16T10:01:36;4.43;;;2.00;;
17696;SDS011;8967;47.984;7.842;2023-07-16T10:04:12;3.90;;;1.67;;
17696;SDS011;8967;47.984;7.842;2023-07-16T10:06:49;6.03;;;1.70;;
17696;SDS011;8967;47.984;7.842;2023-07-16T10:09:35;8.85;;;1.60;;
17696;SDS011;8967;47.984;7.842;2023-07-16T10:14:50;2.42;;;1.38;;
17696;SDS011;8967;47.984;7.842;2023-07-16T10:17:19;5.15;;;1.98;;
17696;SDS011;8967;47.984;7.842;2023-07-16T10:19:54;5.63;;;1.95;;
17696;SDS011;8967;47.984;7.842;2023-07-16T10:22:31;4.03;;;1.95;;
17696;SDS011;8967;47.984;7.842;2023-07-16T10:25:00;6.57;;;2.05;;
17696;SDS011;8967;47.984;7.842;2023-07-16T10:27:28;4.63;;;1.92;;
17696;SDS011;8967;47.984;7.842;2023-07-16T10:29:56;4.45;;;1.67;;
17696;SDS011;8967;47.984;7.842;2023-07-16T10:32:26;4.88;;;1.70;;
17696;SDS011;8967;47.984;7.842;2023-07-16T10:34:58;2.83;;;1.70;;
17696;SDS011;8967;47.984;7.842;2023-07-16T10:37:25;5.38;;;1.70;;
17696;SDS011;8967;47.984;7.842;2023-07-16T10:39:53;5.57;;;1.80;;
17696;SDS011;8967;47.984;7.842;2023-07-16T10:42:23;4.28;;;1.83;;
17696;SDS011;8967;47.984;7.842;2023-07-16T10:44:51;5.05;;;1.60;;
17696;SDS011;8967;47.984;7.842;2023-07-16T10:47:21;6.72;;;1.77;;
17696;SDS011;8967;47.984;7.842;2023-07-16T10:49:49;7.30;;;1.85;;
17696;SDS011;8967;47.984;7.842;2023-07-16T10:52:19;2.60;;;1.60;;
17696;SDS011;8967;47.984;7.842;2023-07-16T10:54:47;3.75;;;1.60;;
17696;SDS011;8967;47.984;7.842;2023-07-16T10:57:15;7.40;;;1.88;;
17696;SDS011;8967;47.984;7.842;2023-07-16T10:59:44;4.70;;;1.80;;
17696;SDS011;8967;47.984;7.842;2023-07-16T11:02:13;4.72;;;1.67;;
17696;SDS011;8967;47.984;7.842;2023-07-16T11:04:41;7.13;;;1.83;;
17696;SDS011;8967;47.984;7.842;2023-07-16T11:07:09;4.63;;;1.55;;
17696;SDS011;8967;47.984;7.842;2023-07-16T11:09:42;3.97;;;1.92;;
17696;SDS011;8967;47.984;7.842;2023-07-16T11:12:10;3.15;;;1.67;;
17696;SDS011;8967;47.984;7.842;2023-07-16T11:14:38;4.20;;;1.90;;
17696;SDS011;8967;47.984;7.842;2023-07-16T11:17:08;5.40;;;1.83;;
17696;SDS011;8967;47.984;7.842;2023-07-16T11:19:38;4.82;;;1.67;;
17696;SDS011;8967;47.984;7.842;2023-07-16T11:22:08;4.40;;;1.73;;
17696;SDS011;8967;47.984;7.842;2023-07-16T11:24:39;7.75;;;1.75;;
17696;SDS011;8967;47.984;7.842;2023-07-16T11:27:12;4.63;;;1.77;;
17696;SDS011;8967;47.984;7.842;2023-07-16T11:29:40;3.63;;;1.90;;
17696;SDS011;8967;47.984;7.842;2023-07-16T11:32:11;5.05;;;2.25;;
17696;SDS011;8967;47.984;7.842;2023-07-16T11:34:38;5.65;;;1.75;;
17696;SDS011;8967;47.984;7.842;2023-07-16T11:37:17;4.28;;;1.80;;
17696;SDS011;8967;47.984;7.842;2023-07-16T11:39:46;6.50;;;1.90;;
17696;SDS011;8967;47.984;7.842;2023-07-16T11:42:14;3.22;;;1.50;;
17696;SDS011;8967;47.984;7.842;2023-07-16T11:44:48;6.60;;;2.00;;
17696;SDS011;8967;47.984;7.842;2023-07-16T11:47:16;4.03;;;1.75;;
17696;SDS011;8967;47.984;7.842;2023-07-16T11:49:43;8.20;;;1.80;;
17696;SDS011;8967;47.984;7.842;2023-07-16T11:52:10;9.13;;;2.08;;
17696;SDS011;8967;47.984;7.842;2023-07-16T11:54:37;5.85;;;2.00;;
17696;SDS011;8967;47.984;7.842;2023-07-16T11:57:04;5.60;;;2.20;;
17696;SDS011;8967;47.984;7.842;2023-07-16T11:59:32;4.38;;;1.92;;
17696;SDS011;8967;47.984;7.842;2023-07-16T12:01:59;4.88;;;2.05;;
17696;SDS011;8967;47.984;7.842;2023-07-16T12:04:28;4.82;;;1.98;;
17696;SDS011;8967;47.984;7.842;2023-07-16T12:06:55;4.97;;;1.90;;
17696;SDS011;8967;47.984;7.842;2023-07-16T12:09:24;5.45;;;2.20;;
17696;SDS011;8967;47.984;7.842;2023-07-16T12:11:51;5.45;;;1.90;;
17696;SDS011;8967;47.984;7.842;2023-07-16T12:14:18;5.18;;;2.15;;
17696;SDS011;8967;47.984;7.842;2023-07-16T12:16:46;4.22;;;1.70;;
17696;SDS011;8967;47.984;7.842;2023-07-16T12:19:13;3.35;;;1.60;;
17696;SDS011;8967;47.984;7.842;2023-07-16T12:21:40;5.43;;;2.20;;
17696;SDS011;8967;47.984;7.842;2023-07-16T12:24:07;4.72;;;1.75;;
17696;SDS011;8967;47.984;7.842;2023-07-16T12:26:34;4.93;;;1.88;;
17696;SDS011;8967;47.984;7.842;2023-07-16T12:29:01;4.95;;;1.88;;
17696;SDS011;8967;47.984;7.842;2023-07-16T12:31:29;6.00;;;2.40;;
17696;SDS011;8967;47.984;7.842;2023-07-16T12:33:59;6.30;;;3.30;;
17696;SDS011;8967;47.984;7.842;2023-07-16T12:36:29;5.00;;;2.05;;
17696;SDS011;8967;47.984;7.842;2023-07-16T12:38:56;4.38;;;2.42;;
17696;SDS011;8967;47.984;7.842;2023-07-16T12:41:25;5.25;;;1.80;;
17696;SDS011;8967;47.984;7.842;2023-07-16T12:43:52;6.72;;;1.85;;
17696;SDS011;8967;47.984;7.842;2023-07-16T12:46:19;5.70;;;2.00;;
17696;SDS011;8967;47.984;7.842;2023-07-16T12:48:46;7.25;;;2.40;;
17696;SDS011;8967;47.984;7.842;2023-07-16T12:51:14;7.60;;;1.75;;
17696;SDS011;8967;47.984;7.842;2023-07-16T12:53:41;5.90;;;1.70;;
17696;SDS011;8967;47.984;7.842;2023-07-16T12:56:08;5.68;;;2.10;;
17696;SDS011;8967;47.984;7.842;2023-07-16T12:58:35;4.55;;;1.70;;
17696;SDS011;8967;47.984;7.842;2023-07-16T13:01:02;4.25;;;1.60;;
17696;SDS011;8967;47.984;7.842;2023-07-16T13:03:29;3.65;;;1.73;;
17696;SDS011;8967;47.984;7.842;2023-07-16T13:05:56;3.65;;;2.08;;
17696;SDS011;8967;47.984;7.842;2023-07-16T13:08:24;4.10;;;1.75;;
17696;SDS011;8967;47.984;7.842;2023-07-16T13:10:53;4.63;;;2.00;;
17696;SDS011;8967;47.984;7.842;2023-07-16T13:13:20;4.28;;;1.92;;
17696;SDS011;8967;47.984;7.842;2023-07-16T13:15:47;5.63;;;2.00;;
17696;SDS011;8967;47.984;7.842;2023-07-16T13:18:14;3.05;;;1.70;;
17696;SDS011;8967;47.984;7.842;2023-07-16T13:20:44;5.47;;;2.00;;
17696;SDS011;8967;47.984;7.842;2023-07-16T13:23:11;5.20;;;1.75;;
17696;SDS011;8967;47.984;7.842;2023-07-16T13:25:39;3.67;;;1.92;;
17696;SDS011;8967;47.984;7.842;2023-07-16T13:28:07;5.13;;;1.88;;
17696;SDS011;8967;47.984;7.842;2023-07-16T13:30:34;3.42;;;1.80;;
17696;SDS011;8967;47.984;7.842;2023-07-16T13:33:01;5.85;;;1.95;;
17696;SDS011;8967;47.984;7.842;2023-07-16T13:35:30;4.10;;;1.98;;
17696;SDS011;8967;47.984;7.842;2023-07-16T13:37:57;2.75;;;1.85;;
17696;SDS011;8967;47.984;7.842;2023-07-16T13:40:26;3.22;;;1.73;;
17696;SDS011;8967;47.984;7.842;2023-07-16T13:42:54;5.18;;;1.98;;
17696;SDS011;8967;47.984;7.842;2023-07-16T13:45:23;4.30;;;1.67;;
17696;SDS011;8967;47.984;7.842;2023-07-16T13:47:50;7.32;;;2.42;;
17696;SDS011;8967;47.984;7.842;2023-07-16T13:50:17;2.60;;;1.63;;
17696;SDS011;8967;47.984;7.842;2023-07-16T13:52:48;3.42;;;1.75;;
17696;SDS011;8967;47.984;7.842;2023-07-16T13:55:15;3.40;;;1.85;;
17696;SDS011;8967;47.984;7.842;2023-07-16T13:57:42;4.07;;;1.60;;
17696;SDS011;8967;47.984;7.842;2023-07-16T14:00:11;3.65;;;1.45;;
17696;SDS011;8967;47.984;7.842;2023-07-16T14:02:41;4.50;;;1.73;;
17696;SDS011;8967;47.984;7.842;2023-07-16T14:05:08;5.60;;;1.90;;
17696;SDS011;8967;47.984;7.842;2023-07-16T14:07:38;7.18;;;2.15;;
17696;SDS011;8967;47.984;7.842;2023-07-16T14:10:05;4.85;;;1.85;;
17696;SDS011;8967;47.984;7.842;2023-07-16T14:12:33;4.50;;;1.95;;
17696;SDS011;8967;47.984;7.842;2023-07-16T14:15:00;4.55;;;1.95;;
17696;SDS011;8967;47.984;7.842;2023-07-16T14:17:28;6.13;;;1.95;;
17696;SDS011;8967;47.984;7.842;2023-07-16T14:19:55;3.08;;;1.70;;
17696;SDS011;8967;47.984;7.842;2023-07-16T14:22:22;6.05;;;1.73;;
17696;SDS011;8967;47.984;7.842;2023-07-16T14:24:54;4.97;;;2.08;;
17696;SDS011;8967;47.984;7.842;2023-07-16T14:27:21;5.07;;;2.00;;
17696;SDS011;8967;47.984;7.842;2023-07-16T14:29:48;6.38;;;2.08;;
17696;SDS011;8967;47.984;7.842;2023-07-16T14:32:15;5.63;;;1.98;;
17696;SDS011;8967;47.984;7.842;2023-07-16T14:34:43;2.17;;;1.63;;
17696;SDS011;8967;47.984;7.842;2023-07-16T14:37:10;5.25;;;2.10;;
17696;SDS011;8967;47.984;7.842;2023-07-16T14:39:38;3.97;;;2.00;;
17696;SDS011;8967;47.984;7.842;2023-07-16T14:42:04;3.20;;;1.77;;
17696;SDS011;8967;47.984;7.842;2023-07-16T14:44:34;3.67;;;1.73;;
17696;SDS011;8967;47.984;7.842;2023-07-16T14:47:01;3.17;;;1.67;;
17696;SDS011;8967;47.984;7.842;2023-07-16T14:49:29;2.53;;;1.77;;
17696;SDS011;8967;47.984;7.842;2023-07-16T14:51:57;3.90;;;1.88;;
17696;SDS011;8967;47.984;7.842;2023-07-16T14:54:24;6.18;;;2.00;;
17696;SDS011;8967;47.984;7.842;2023-07-16T14:56:51;7.78;;;2.03;;
17696;SDS011;8967;47.984;7.842;2023-07-16T14:59:17;6.15;;;1.75;;
17696;SDS011;8967;47.984;7.842;2023-07-16T15:01:44;6.70;;;2.22;;
17696;SDS011;8967;47.984;7.842;2023-07-16T15:04:11;2.90;;;1.83;;
17696;SDS011;8967;47.984;7.842;2023-07-16T15:06:38;4.22;;;2.05;;
17696;SDS011;8967;47.984;7.842;2023-07-16T15:09:06;4.40;;;2.20;;